Time;durP1;ratioP1;P1;durP2;ratioP2;P2;SDS_P1;SDS_P2;PMS_P1;PMS_P2;Temp;Humidity;BMP_temperature;BMP_pressure;BME280_temperature;BME280_humidity;BME280_pressure;Samples;Min_cycle;Max_cycle;Signal;HPM_P1;HPM_P2
2024/03/09 00:01:37;;;;;;;29.00;18.10;;;5.10;88.20;;;;;;6250089;22;20012;-65
2024/03/09 00:04:23;;;;;;;22.75;16.20;;;5.10;88.30;;;;;;6253608;22;20007;-64
2024/03/09 00:07:11;;;;;;;24.67;14.73;;;5.10;88.50;;;;;;6250803;22;20016;-64
2024/03/09 00:09:57;;;;;;;31.27;17.42;;;5.10;88.50;;;;;;6273056;22;20010;-64
2024/03/09 00:12:43;;;;;;;27.58;16.45;;;5.10;88.60;;;;;;6249540;22;20036;-64
2024/03/09 00:15:29;;;;;;;28.27;17.67;;;5.10;88.70;;;;;;6272327;22;20018;-64
2024/03/09 00:18:15;;;;;;;26.30;15.82;;;5.00;88.90;;;;;;6272351;22;20443;-64
2024/03/09 00:21:01;;;;;;;30.17;18.05;;;5.10;88.90;;;;;;6273811;22;20008;-65
2024/03/09 00:23:50;;;;;;;24.85;16.58;;;5.00;89.10;;;;;;6272777;22;20106;-64
2024/03/09 00:26:36;;;;;;;28.42;17.23;;;5.00;89.10;;;;;;6271395;22;20019;-64
2024/03/09 00:29:24;;;;;;;28.50;17.73;;;5.00;89.20;;;;;;6272326;22;20008;-64
2024/03/09 00:32:11;;;;;;;25.20;16.58;;;4.90;89.30;;;;;;6272563;22;20086;-64
2024/03/09 00:34:57;;;;;;;30.00;17.63;;;4.90;89.40;;;;;;6274172;22;20004;-65
2024/03/09 00:37:45;;;;;;;28.13;17.17;;;4.90;89.60;;;;;;6272481;22;20014;-64
2024/03/09 00:40:31;;;;;;;30.73;17.60;;;4.90;89.70;;;;;;6250585;22;20007;-64
2024/03/09 00:43:17;;;;;;;30.60;17.77;;;4.90;89.70;;;;;;6272028;22;20011;-64
2024/03/09 00:46:04;;;;;;;29.55;17.83;;;4.90;89.80;;;;;;6249076;22;20109;-64
2024/03/09 00:48:50;;;;;;;26.75;17.38;;;4.90;90.00;;;;;;6270755;22;20012;-64
2024/03/09 00:51:37;;;;;;;27.48;17.60;;;4.80;90.00;;;;;;6272281;22;20012;-63
2024/03/09 00:54:25;;;;;;;28.45;16.63;;;4.80;90.10;;;;;;6274527;22;20008;-64
2024/03/09 00:57:13;;;;;;;27.13;17.25;;;4.80;90.10;;;;;;6270191;22;20087;-64
2024/03/09 01:00:00;;;;;;;30.77;19.10;;;4.80;90.20;;;;;;6269020;22;20336;-64
2024/03/09 01:02:49;;;;;;;31.13;19.45;;;4.80;90.40;;;;;;6271793;22;20012;-63
2024/03/09 01:05:35;;;;;;;29.65;18.63;;;4.80;90.40;;;;;;6250334;22;20069;-64
2024/03/09 01:08:20;;;;;;;32.53;20.20;;;4.70;90.40;;;;;;6248922;22;20019;-64
2024/03/09 01:11:06;;;;;;;29.55;19.88;;;4.70;90.50;;;;;;6273695;22;20163;-65
2024/03/09 01:13:52;;;;;;;33.17;19.30;;;4.70;90.50;;;;;;6273321;22;20008;-64
2024/03/09 01:16:38;;;;;;;29.02;18.83;;;4.70;90.60;;;;;;6248208;22;20012;-65
2024/03/09 01:19:24;;;;;;;31.60;19.63;;;4.70;90.60;;;;;;6273625;22;20011;-63
2024/03/09 01:22:12;;;;;;;29.88;19.98;;;4.60;90.60;;;;;;6274402;22;20016;-64
2024/03/09 01:24:58;;;;;;;33.03;18.98;;;4.70;90.60;;;;;;6270665;22;20020;-64
2024/03/09 01:27:44;;;;;;;30.02;18.80;;;4.60;90.70;;;;;;6270522;22;20019;-64
2024/03/09 01:30:30;;;;;;;31.98;18.92;;;4.60;90.80;;;;;;6271556;22;20014;-63
2024/03/09 01:33:15;;;;;;;29.45;19.13;;;4.60;90.80;;;;;;6271778;22;20015;-63
2024/03/09 01:36:02;;;;;;;31.50;18.50;;;4.50;90.90;;;;;;6273204;22;20008;-63
2024/03/09 01:38:48;;;;;;;34.17;19.42;;;4.50;90.90;;;;;;6271495;22;20008;-64
2024/03/09 01:41:34;;;;;;;30.55;19.90;;;4.50;91.00;;;;;;6270525;22;20019;-64
2024/03/09 01:44:21;;;;;;;30.10;19.65;;;4.50;91.00;;;;;;6273256;22;20016;-64
2024/03/09 01:47:09;;;;;;;36.28;19.38;;;4.50;91.10;;;;;;6269938;22;20019;-64
2024/03/09 01:49:57;;;;;;;30.67;19.08;;;4.40;91.20;;;;;;6250585;22;20091;-63
2024/03/09 01:52:48;;;;;;;34.72;19.42;;;4.50;91.20;;;;;;6271845;22;20034;-64
2024/03/09 01:55:35;;;;;;;36.20;20.40;;;4.50;91.30;;;;;;6275770;22;20008;-64
2024/03/09 01:58:22;;;;;;;33.75;20.42;;;4.50;91.30;;;;;;6276928;22;20104;-64
2024/03/09 02:01:22;;;;;;;31.58;19.65;;;4.50;91.40;;;;;;6273594;22;20000;-64
2024/03/09 02:04:09;;;;;;;35.30;22.42;;;4.40;91.40;;;;;;6248826;22;20099;-64
2024/03/09 02:06:56;;;;;;;37.05;20.85;;;4.40;91.50;;;;;;6270682;22;20026;-63
2024/03/09 02:09:44;;;;;;;37.85;23.20;;;4.40;91.50;;;;;;6270420;22;20004;-62
2024/03/09 02:12:30;;;;;;;36.65;21.63;;;4.40;91.60;;;;;;6272228;22;20065;-64
2024/03/09 02:15:16;;;;;;;36.53;20.83;;;4.40;91.60;;;;;;6269368;22;20014;-63
2024/03/09 02:18:02;;;;;;;35.03;21.05;;;4.30;91.60;;;;;;6274916;22;20015;-63
2024/03/09 02:20:50;;;;;;;40.65;24.02;;;4.30;91.60;;;;;;6271136;22;20098;-63
2024/03/09 02:23:37;;;;;;;36.22;21.70;;;4.30;91.70;;;;;;6271136;22;20352;-63
2024/03/09 02:26:24;;;;;;;33.42;20.55;;;4.20;91.70;;;;;;6270319;22;20023;-62
2024/03/09 02:29:13;;;;;;;34.30;20.63;;;4.20;91.80;;;;;;6272164;22;20378;-63
2024/03/09 02:31:59;;;;;;;36.65;21.30;;;4.10;91.90;;;;;;6245692;22;20142;-63
2024/03/09 02:34:45;;;;;;;32.13;19.88;;;4.10;91.90;;;;;;6270181;22;20107;-63
2024/03/09 02:37:31;;;;;;;34.53;20.65;;;4.10;91.90;;;;;;6249963;22;20369;-63
2024/03/09 02:40:18;;;;;;;38.40;21.90;;;4.10;91.90;;;;;;6270714;22;20007;-63
2024/03/09 02:43:05;;;;;;;37.55;22.10;;;4.10;92.00;;;;;;6270412;22;20360;-62
2024/03/09 02:45:52;;;;;;;37.00;21.52;;;4.10;92.00;;;;;;6271023;22;20019;-63
2024/03/09 02:48:38;;;;;;;42.50;23.58;;;4.00;92.00;;;;;;6272089;22;20158;-63
2024/03/09 02:51:25;;;;;;;38.85;22.45;;;4.00;92.10;;;;;;6271562;22;20718;-64
2024/03/09 02:54:12;;;;;;;42.45;22.17;;;4.00;92.10;;;;;;6269992;22;20012;-64
2024/03/09 02:57:00;;;;;;;37.88;22.92;;;4.00;92.40;;;;;;6271301;22;20019;-63
2024/03/09 02:59:46;;;;;;;37.80;21.75;;;4.00;92.20;;;;;;6270820;22;20008;-63
2024/03/09 03:05:40;;;;;;;34.08;20.83;;;4.00;92.30;;;;;;6272146;22;20488;-63
2024/03/09 03:08:26;;;;;;;34.22;20.23;;;3.90;92.30;;;;;;6271689;22;20043;-63
2024/03/09 03:11:16;;;;;;;40.50;24.13;;;3.90;92.40;;;;;;6271568;22;20091;-64
2024/03/09 03:14:02;;;;;;;39.67;22.77;;;3.90;92.40;;;;;;6271129;22;20015;-64
2024/03/09 03:16:48;;;;;;;38.45;22.63;;;3.90;92.50;;;;;;6274723;22;20014;-63
2024/03/09 03:19:34;;;;;;;37.75;22.38;;;3.80;92.40;;;;;;6269852;22;20015;-64
2024/03/09 03:22:21;;;;;;;44.15;23.42;;;3.80;92.50;;;;;;6270398;22;20019;-64
2024/03/09 03:25:09;;;;;;;36.15;20.98;;;3.80;92.60;;;;;;6270096;22;20087;-64
2024/03/09 03:27:56;;;;;;;36.40;21.08;;;3.70;92.60;;;;;;6270087;22;20023;-64
2024/03/09 03:30:42;;;;;;;44.85;24.63;;;3.70;92.60;;;;;;6270236;22;20003;-64
2024/03/09 03:33:28;;;;;;;40.53;21.52;;;3.70;92.70;;;;;;6271032;22;20016;-65
2024/03/09 03:36:18;;;;;;;36.25;22.02;;;3.70;92.70;;;;;;6272538;22;20011;-65
2024/03/09 03:39:04;;;;;;;38.15;22.33;;;3.60;92.80;;;;;;6272217;22;20004;-64
2024/03/09 03:41:52;;;;;;;37.05;21.10;;;3.60;92.80;;;;;;6271511;22;20019;-65
2024/03/09 03:44:42;;;;;;;38.40;23.10;;;3.60;92.90;;;;;;6273601;22;20004;-63
2024/03/09 03:47:28;;;;;;;38.08;21.65;;;3.60;92.90;;;;;;6273174;22;20098;-63
2024/03/09 03:50:14;;;;;;;46.15;24.48;;;3.60;93.00;;;;;;6254203;22;20344;-63
2024/03/09 03:53:04;;;;;;;38.95;22.80;;;3.60;93.00;;;;;;6271394;22;20014;-63
2024/03/09 03:55:51;;;;;;;41.17;22.58;;;3.50;93.10;;;;;;6272261;22;20042;-63
2024/03/09 03:58:38;;;;;;;43.35;22.25;;;3.50;93.10;;;;;;6252338;22;20015;-64
2024/03/09 04:01:23;;;;;;;42.28;23.17;;;3.50;93.10;;;;;;6273308;22;20038;-63
2024/03/09 04:04:10;;;;;;;40.28;24.15;;;3.50;93.30;;;;;;6273957;22;20521;-63
2024/03/09 04:06:56;;;;;;;40.08;23.52;;;3.40;93.30;;;;;;6272570;22;20470;-63
2024/03/09 04:09:42;;;;;;;46.88;25.45;;;3.50;93.30;;;;;;6274501;22;20087;-63
2024/03/09 04:12:28;;;;;;;47.13;23.95;;;3.40;93.50;;;;;;6272496;22;20062;-63
2024/03/09 04:15:14;;;;;;;44.97;25.65;;;3.40;93.50;;;;;;6272447;22;20014;-63
2024/03/09 04:18:02;;;;;;;39.88;23.42;;;3.40;93.50;;;;;;6273284;22;20018;-64
2024/03/09 04:20:48;;;;;;;40.80;22.73;;;3.30;93.50;;;;;;6272414;22;20325;-64
2024/03/09 04:23:35;;;;;;;49.28;26.92;;;3.30;93.50;;;;;;6271254;22;20520;-64
2024/03/09 04:26:21;;;;;;;43.22;24.48;;;3.30;93.60;;;;;;6253537;22;20007;-65
2024/03/09 04:29:07;;;;;;;43.78;23.48;;;3.30;93.60;;;;;;6272053;22;20072;-65
2024/03/09 04:31:53;;;;;;;41.97;25.63;;;3.20;93.60;;;;;;6270783;22;20492;-64
2024/03/09 04:34:40;;;;;;;46.25;26.25;;;3.20;93.70;;;;;;6273554;22;20440;-64
2024/03/09 04:37:25;;;;;;;48.65;25.50;;;3.20;93.80;;;;;;6271655;22;20034;-64
2024/03/09 04:40:17;;;;;;;41.05;23.13;;;3.20;93.80;;;;;;6272723;22;20452;-65
2024/03/09 04:43:03;;;;;;;45.85;25.38;;;3.20;93.80;;;;;;6271956;22;20077;-65
2024/03/09 04:45:50;;;;;;;47.92;26.92;;;3.20;93.90;;;;;;6271828;22;20090;-65
2024/03/09 04:48:36;;;;;;;40.90;24.42;;;3.20;93.90;;;;;;6249216;22;20051;-65
2024/03/09 04:51:23;;;;;;;39.60;24.67;;;3.20;94.00;;;;;;6271689;22;20491;-65
2024/03/09 04:54:10;;;;;;;45.58;26.50;;;3.20;94.00;;;;;;6271416;22;20089;-65
2024/03/09 04:56:56;;;;;;;47.35;27.27;;;3.20;94.10;;;;;;6269957;22;20011;-65
2024/03/09 04:59:43;;;;;;;44.25;25.58;;;3.20;94.20;;;;;;6251108;22;20458;-65
2024/03/09 05:02:29;;;;;;;45.13;26.42;;;3.20;94.20;;;;;;6271747;22;20348;-64
2024/03/09 05:05:19;;;;;;;49.75;26.85;;;3.20;94.20;;;;;;6271400;22;20066;-64
2024/03/09 05:08:06;;;;;;;46.13;26.35;;;3.20;94.30;;;;;;6284668;22;20015;-64
2024/03/09 05:10:52;;;;;;;44.05;24.52;;;3.20;94.30;;;;;;6281679;22;20015;-65
2024/03/09 05:13:38;;;;;;;52.58;28.02;;;3.20;94.30;;;;;;6270780;22;20019;-65
2024/03/09 05:16:24;;;;;;;45.95;25.20;;;3.10;94.30;;;;;;6272548;22;20069;-64
2024/03/09 05:19:10;;;;;;;49.58;26.95;;;3.10;94.40;;;;;;6273772;22;20091;-64
2024/03/09 05:21:56;;;;;;;50.50;27.05;;;3.10;94.40;;;;;;6272617;22;20008;-64
2024/03/09 05:24:42;;;;;;;43.65;26.23;;;3.10;94.50;;;;;;6270998;22;20043;-64
2024/03/09 05:27:28;;;;;;;48.05;27.20;;;3.10;94.60;;;;;;6272361;22;20356;-64
2024/03/09 05:30:17;;;;;;;43.03;25.10;;;3.10;94.60;;;;;;6270817;22;20012;-63
2024/03/09 05:33:06;;;;;;;44.42;25.48;;;3.10;94.70;;;;;;6248595;22;20317;-63
2024/03/09 05:35:52;;;;;;;46.83;26.35;;;3.10;94.70;;;;;;6271483;22;20012;-65
2024/03/09 05:38:41;;;;;;;51.97;28.35;;;3.10;94.70;;;;;;6271706;22;20004;-64
2024/03/09 05:41:27;;;;;;;47.92;26.90;;;3.10;94.70;;;;;;6270600;22;20018;-63
2024/03/09 05:44:13;;;;;;;52.75;27.90;;;3.10;94.80;;;;;;6272051;22;20008;-64
2024/03/09 05:47:01;;;;;;;47.05;25.77;;;3.10;94.90;;;;;;6272129;22;20015;-64
2024/03/09 05:49:47;;;;;;;48.60;28.02;;;3.10;94.90;;;;;;6272805;22;20008;-64
2024/03/09 05:52:34;;;;;;;47.70;26.92;;;3.10;94.90;;;;;;6272891;22;20007;-64
2024/03/09 05:55:20;;;;;;;50.15;26.15;;;3.10;94.90;;;;;;6270583;22;20371;-64
2024/03/09 05:58:07;;;;;;;50.15;25.48;;;3.10;95.00;;;;;;6272501;22;20007;-64
2024/03/09 06:00:53;;;;;;;50.03;27.52;;;3.00;95.00;;;;;;6272349;22;20007;-63
2024/03/09 06:03:41;;;;;;;50.10;28.73;;;3.10;95.00;;;;;;6248706;22;20091;-64
2024/03/09 06:06:27;;;;;;;47.45;26.52;;;3.10;95.10;;;;;;6271467;22;20015;-64
2024/03/09 06:09:15;;;;;;;48.22;26.50;;;3.10;95.10;;;;;;6271044;22;20015;-64
2024/03/09 06:12:01;;;;;;;49.47;27.13;;;3.10;95.20;;;;;;6269312;22;20462;-64
2024/03/09 06:14:47;;;;;;;46.08;27.10;;;3.10;95.20;;;;;;6272125;22;20455;-65
2024/03/09 06:17:33;;;;;;;46.08;27.08;;;3.10;95.20;;;;;;6248787;22;20434;-64
2024/03/09 06:20:19;;;;;;;44.53;25.77;;;3.10;95.40;;;;;;6272503;22;20042;-64
2024/03/09 06:23:05;;;;;;;52.50;27.67;;;3.10;95.40;;;;;;6249665;22;19999;-64
2024/03/09 06:25:51;;;;;;;53.85;27.13;;;3.10;95.40;;;;;;6270344;22;20471;-63
2024/03/09 06:28:41;;;;;;;49.38;26.80;;;3.10;95.50;;;;;;6271010;22;20024;-63
2024/03/09 06:31:27;;;;;;;51.47;29.67;;;3.10;95.50;;;;;;6270904;22;20448;-63
2024/03/09 06:34:14;;;;;;;47.95;27.88;;;3.10;95.60;;;;;;6246189;22;20066;-63
2024/03/09 06:36:59;;;;;;;48.05;27.15;;;3.10;95.60;;;;;;6268894;22;20141;-62
2024/03/09 06:39:45;;;;;;;54.28;29.25;;;3.20;95.70;;;;;;6270210;22;20015;-63
2024/03/09 06:42:32;;;;;;;53.10;25.85;;;3.20;95.80;;;;;;6269622;22;20008;-63
2024/03/09 06:45:18;;;;;;;58.00;29.73;;;3.20;95.80;;;;;;6273360;22;20008;-63
2024/03/09 06:48:04;;;;;;;54.38;29.83;;;3.20;95.90;;;;;;6272501;22;20041;-63
2024/03/09 06:50:50;;;;;;;50.75;27.80;;;3.30;95.90;;;;;;6269384;22;20011;-62
2024/03/09 06:53:36;;;;;;;47.05;26.27;;;3.20;96.00;;;;;;6268715;22;20016;-62
2024/03/09 06:56:22;;;;;;;49.50;26.90;;;3.30;96.00;;;;;;6270371;22;20042;-63
2024/03/09 06:59:08;;;;;;;50.60;29.17;;;3.30;96.00;;;;;;6269940;22;20019;-63
2024/03/09 07:01:59;;;;;;;54.88;29.17;;;3.30;96.00;;;;;;6270393;22;20011;-63
2024/03/09 07:04:47;;;;;;;49.47;27.95;;;3.30;96.00;;;;;;6270866;22;20073;-63
2024/03/09 07:07:33;;;;;;;52.53;29.90;;;3.30;96.00;;;;;;6270214;22;20012;-63
2024/03/09 07:10:18;;;;;;;53.42;28.70;;;3.40;96.30;;;;;;6272694;22;20166;-62
2024/03/09 07:13:04;;;;;;;54.38;28.60;;;3.40;96.20;;;;;;6271512;22;20018;-63
2024/03/09 07:15:50;;;;;;;50.28;28.23;;;3.40;96.20;;;;;;6274272;22;20004;-66
2024/03/09 07:18:37;;;;;;;51.40;29.15;;;3.50;96.40;;;;;;6269672;22;20014;-65
2024/03/09 07:21:25;;;;;;;46.88;28.73;;;3.60;96.30;;;;;;6271975;22;20046;-64
2024/03/09 07:24:10;;;;;;;49.60;27.27;;;3.60;96.30;;;;;;6273581;22;20391;-64
2024/03/09 07:26:56;;;;;;;54.95;30.15;;;3.60;96.40;;;;;;6251089;22;20054;-63
2024/03/09 07:29:49;;;;;;;47.80;27.90;;;3.70;96.30;;;;;;6274799;22;20003;-64
2024/03/09 07:32:39;;;;;;;55.65;29.92;;;3.80;96.40;;;;;;6254366;22;20012;-63
2024/03/09 07:35:27;;;;;;;51.95;29.13;;;3.80;96.40;;;;;;6274409;22;20012;-63
2024/03/09 07:38:13;;;;;;;50.25;28.67;;;3.90;96.60;;;;;;6253422;22;20321;-63
2024/03/09 07:40:59;;;;;;;43.92;26.33;;;4.00;96.50;;;;;;6272875;22;20016;-63
2024/03/09 07:43:45;;;;;;;47.42;26.02;;;4.00;96.50;;;;;;6271840;22;20039;-62
2024/03/09 07:46:31;;;;;;;48.55;26.92;;;4.10;96.50;;;;;;6272952;22;20107;-64
2024/03/09 07:49:17;;;;;;;55.20;29.02;;;4.20;96.50;;;;;;6272259;22;20405;-64
2024/03/09 07:52:05;;;;;;;50.72;27.25;;;4.30;96.50;;;;;;6271893;22;20061;-64
2024/03/09 07:54:51;;;;;;;50.15;26.65;;;4.30;96.50;;;;;;6272988;22;20090;-64
2024/03/09 07:57:37;;;;;;;54.83;28.27;;;4.50;96.50;;;;;;6274077;22;20089;-65
2024/03/09 08:00:27;;;;;;;50.40;27.77;;;4.60;96.50;;;;;;6274054;22;20011;-66
2024/03/09 08:03:13;;;;;;;42.33;26.33;;;4.60;96.40;;;;;;6271954;22;20035;-66
2024/03/09 08:05:59;;;;;;;43.33;26.33;;;4.70;96.40;;;;;;6275968;22;20400;-66
2024/03/09 08:08:45;;;;;;;48.78;28.70;;;4.70;96.40;;;;;;6274190;22;20405;-65
2024/03/09 08:11:31;;;;;;;47.05;26.80;;;4.80;96.40;;;;;;6272753;22;20003;-67
2024/03/09 08:14:18;;;;;;;48.28;28.00;;;4.90;96.30;;;;;;6282476;22;20026;-67
2024/03/09 08:17:05;;;;;;;43.95;26.20;;;5.00;96.30;;;;;;6290292;22;20004;-64
2024/03/09 08:19:50;;;;;;;49.90;27.08;;;5.00;96.30;;;;;;6273327;22;20031;-68
2024/03/09 08:22:39;;;;;;;46.08;25.65;;;5.10;96.20;;;;;;6271708;22;20039;-67
2024/03/09 08:25:27;;;;;;;44.65;25.08;;;5.20;96.30;;;;;;6271512;22;20030;-65
2024/03/09 08:28:14;;;;;;;43.05;24.20;;;5.30;96.20;;;;;;6274532;22;20023;-69
2024/03/09 08:31:01;;;;;;;44.20;25.35;;;5.40;96.20;;;;;;6273764;22;20018;-67
2024/03/09 08:33:47;;;;;;;46.85;26.48;;;5.50;96.20;;;;;;6272432;22;20038;-66
2024/03/09 08:36:34;;;;;;;44.78;25.70;;;5.50;96.10;;;;;;6272344;22;20061;-69
2024/03/09 08:39:25;;;;;;;43.00;26.55;;;5.60;96.10;;;;;;6272641;22;20007;-70
2024/03/09 08:42:12;;;;;;;43.50;25.35;;;5.70;96.00;;;;;;6271152;22;20104;-70
2024/03/09 08:44:58;;;;;;;42.88;26.45;;;5.80;96.00;;;;;;6272691;22;20109;-67
2024/03/09 08:47:44;;;;;;;44.15;26.20;;;5.80;96.00;;;;;;6250251;22;20479;-68
2024/03/09 08:50:34;;;;;;;47.60;27.95;;;5.90;95.90;;;;;;6250087;22;20008;-68
2024/03/09 08:53:21;;;;;;;44.15;26.00;;;6.00;95.90;;;;;;6271974;22;20043;-69
2024/03/09 08:56:08;;;;;;;43.15;24.98;;;6.10;95.80;;;;;;6271151;22;20026;-68
2024/03/09 08:58:54;;;;;;;43.17;25.25;;;6.20;95.70;;;;;;6272229;22;20098;-69
2024/03/09 09:01:39;;;;;;;42.17;25.33;;;6.30;95.70;;;;;;6272788;22;20018;-69
2024/03/09 09:04:25;;;;;;;43.75;25.55;;;6.30;95.60;;;;;;6271390;22;20012;-68
2024/03/09 09:07:11;;;;;;;47.17;25.85;;;6.40;95.60;;;;;;6271628;22;20016;-69
2024/03/09 09:09:58;;;;;;;41.85;26.02;;;6.50;95.60;;;;;;6270710;22;20452;-68
2024/03/09 09:12:45;;;;;;;40.25;24.52;;;6.60;95.60;;;;;;6254000;22;20347;-69
2024/03/09 09:15:31;;;;;;;42.83;25.73;;;6.60;95.50;;;;;;6269729;22;20061;-69
2024/03/09 09:18:18;;;;;;;48.63;27.08;;;6.70;95.50;;;;;;6271095;22;20007;-69
2024/03/09 09:21:05;;;;;;;43.97;26.27;;;6.80;95.50;;;;;;6271023;22;20114;-69
2024/03/09 09:23:51;;;;;;;48.67;27.70;;;6.90;95.50;;;;;;6271995;22;20034;-68
2024/03/09 09:26:37;;;;;;;40.38;25.33;;;7.00;95.40;;;;;;6273204;22;20047;-69
2024/03/09 09:29:23;;;;;;;43.15;26.48;;;7.10;95.40;;;;;;6270012;22;20014;-69
2024/03/09 09:32:09;;;;;;;40.80;24.60;;;7.20;95.30;;;;;;6272938;22;20081;-69
2024/03/09 09:34:55;;;;;;;45.03;25.35;;;7.30;95.20;;;;;;6250925;22;20026;-69
2024/03/09 09:37:41;;;;;;;40.75;24.33;;;7.30;95.10;;;;;;6271756;22;20015;-64
2024/03/09 09:40:27;;;;;;;41.95;25.65;;;7.40;95.10;;;;;;6269894;22;20448;-61
2024/03/09 09:43:14;;;;;;;44.97;25.88;;;7.50;95.00;;;;;;6248541;22;20341;-64
2024/03/09 09:46:01;;;;;;;36.67;24.70;;;7.60;94.90;;;;;;6273557;22;20058;-63
2024/03/09 09:48:52;;;;;;;39.22;23.48;;;7.70;94.80;;;;;;6273317;22;20022;-62
2024/03/09 09:51:41;;;;;;;39.60;25.27;;;7.70;94.70;;;;;;6272322;22;20023;-63
2024/03/09 09:54:27;;;;;;;44.10;25.25;;;7.80;94.70;;;;;;6271574;22;20034;-62
2024/03/09 09:57:14;;;;;;;42.70;24.35;;;7.90;94.80;;;;;;6271379;22;20054;-63
2024/03/09 10:00:00;;;;;;;38.75;23.38;;;8.00;94.50;;;;;;6270889;22;20077;-63
2024/03/09 10:02:47;;;;;;;34.58;23.60;;;8.00;94.40;;;;;;6273251;22;20011;-63
2024/03/09 10:05:34;;;;;;;37.95;24.90;;;8.10;94.30;;;;;;6271581;22;20043;-63
2024/03/09 10:08:20;;;;;;;35.40;23.60;;;8.20;94.30;;;;;;6270570;22;20023;-63
2024/03/09 10:11:14;;;;;;;37.55;23.10;;;8.30;94.10;;;;;;6271606;22;20004;-63
2024/03/09 10:14:01;;;;;;;41.75;25.88;;;8.40;94.00;;;;;;6271566;22;20004;-63
2024/03/09 10:16:48;;;;;;;38.75;24.25;;;8.40;93.90;;;;;;6249758;22;20008;-62
2024/03/09 10:19:35;;;;;;;36.22;23.00;;;8.50;93.80;;;;;;6271314;22;20496;-63
2024/03/09 10:22:21;;;;;;;43.15;25.80;;;8.50;93.70;;;;;;6272176;22;20008;-63
2024/03/09 10:25:08;;;;;;;39.15;23.58;;;8.60;93.60;;;;;;6270892;22;20347;-63
2024/03/09 10:27:58;;;;;;;37.10;23.23;;;8.60;93.50;;;;;;6271465;22;20022;-63
2024/03/09 10:30:44;;;;;;;37.65;23.08;;;8.80;93.40;;;;;;6250687;22;20008;-63
2024/03/09 10:33:36;;;;;;;40.28;24.35;;;8.80;93.30;;;;;;6270926;22;20011;-63
2024/03/09 10:36:23;;;;;;;36.17;23.10;;;8.90;93.20;;;;;;6253090;22;20367;-63
2024/03/09 10:39:15;;;;;;;37.03;22.23;;;9.00;93.10;;;;;;6271759;22;20026;-63
2024/03/09 10:42:04;;;;;;;36.20;22.88;;;9.00;92.90;;;;;;6273276;22;20065;-62
2024/03/09 10:44:52;;;;;;;37.55;23.42;;;9.10;92.90;;;;;;6274875;22;20016;-62
2024/03/09 10:47:46;;;;;;;36.80;22.45;;;9.20;92.90;;;;;;6273967;22;20020;-62
2024/03/09 10:50:40;;;;;;;34.58;22.17;;;9.30;92.90;;;;;;6273171;22;20062;-62
2024/03/09 10:53:48;;;;;;;36.22;21.20;;;9.40;92.60;;;;;;6273969;22;20007;-63
2024/03/09 10:56:35;;;;;;;38.85;23.15;;;9.40;92.50;;;;;;6274237;22;20455;-62
2024/03/09 10:59:25;;;;;;;33.80;19.73;;;9.50;92.40;;;;;;6269315;22;20091;-63
2024/03/09 11:02:12;;;;;;;30.63;20.50;;;9.60;92.30;;;;;;6273517;22;20011;-63
2024/03/09 11:05:01;;;;;;;32.90;22.15;;;9.60;92.30;;;;;;6270602;22;20008;-60
2024/03/09 11:07:47;;;;;;;32.05;21.67;;;9.80;92.40;;;;;;6264809;22;20015;-60
2024/03/09 11:10:33;;;;;;;35.05;21.83;;;9.80;92.30;;;;;;6274839;22;20018;-60
2024/03/09 11:13:21;;;;;;;35.60;22.35;;;9.90;92.10;;;;;;6251259;22;20015;-61
2024/03/09 11:16:09;;;;;;;33.38;21.50;;;9.90;91.80;;;;;;6273756;22;20008;-60
2024/03/09 11:18:55;;;;;;;33.25;21.17;;;10.00;91.80;;;;;;6272918;22;20104;-61
2024/03/09 11:21:41;;;;;;;36.85;22.63;;;10.00;91.80;;;;;;6281198;22;20008;-61
2024/03/09 11:24:29;;;;;;;35.20;22.33;;;10.10;91.80;;;;;;6286229;22;20023;-61
2024/03/09 11:27:16;;;;;;;34.40;22.00;;;10.10;91.70;;;;;;6274857;22;20376;-61
2024/03/09 11:30:05;;;;;;;35.30;21.73;;;10.10;91.60;;;;;;6273510;22;20435;-61
2024/03/09 11:32:54;;;;;;;31.00;20.60;;;10.20;91.70;;;;;;6274642;22;20012;-73
2024/03/09 11:35:40;;;;;;;32.85;20.23;;;10.20;91.60;;;;;;6274780;22;20020;-72
2024/03/09 11:38:27;;;;;;;30.23;19.35;;;10.30;91.40;;;;;;6271031;22;20065;-73
2024/03/09 11:41:23;;;;;;;30.08;19.00;;;10.30;91.40;;;;;;6273392;22;20340;-73
2024/03/09 11:44:10;;;;;;;30.55;19.00;;;10.40;91.30;;;;;;6270983;22;20045;-73
2024/03/09 11:46:56;;;;;;;27.83;19.20;;;10.50;91.30;;;;;;6275128;22;20016;-73
2024/03/09 11:49:44;;;;;;;31.15;18.95;;;10.60;91.10;;;;;;6274424;22;20035;-73
2024/03/09 11:52:32;;;;;;;27.45;18.05;;;10.70;91.10;;;;;;6273602;22;20007;-72
2024/03/09 11:55:20;;;;;;;27.20;18.27;;;10.70;91.00;;;;;;6273899;22;20499;-72
2024/03/09 11:58:07;;;;;;;25.30;17.85;;;10.80;91.00;;;;;;6273648;22;20453;-74
2024/03/09 12:00:56;;;;;;;28.08;18.17;;;10.90;91.00;;;;;;6273851;22;20008;-74
2024/03/09 12:03:42;;;;;;;26.13;15.75;;;10.90;90.90;;;;;;6272871;22;20019;-74
2024/03/09 12:06:28;;;;;;;27.27;16.45;;;10.90;90.80;;;;;;6273178;22;20008;-73
2024/03/09 12:09:15;;;;;;;22.70;16.60;;;11.00;90.70;;;;;;6274404;22;20015;-74
2024/03/09 12:12:14;;;;;;;24.67;16.55;;;11.00;90.50;;;;;;6270332;22;20008;-74
2024/03/09 12:15:00;;;;;;;21.20;15.10;;;11.00;90.50;;;;;;6271961;22;20015;-72
2024/03/09 12:17:47;;;;;;;19.08;13.32;;;11.00;90.30;;;;;;6273831;22;20322;-75
2024/03/09 12:20:33;;;;;;;19.25;13.57;;;11.00;90.30;;;;;;6275315;22;20008;-73
2024/03/09 12:23:19;;;;;;;18.73;12.13;;;11.10;90.20;;;;;;6272855;22;20420;-71
2024/03/09 12:26:06;;;;;;;17.60;11.90;;;11.10;90.10;;;;;;6273700;22;20023;-76
2024/03/09 12:28:59;;;;;;;17.38;10.90;;;11.10;90.00;;;;;;6273076;22;20504;-70
2024/03/09 12:31:45;;;;;;;18.33;11.07;;;11.20;90.00;;;;;;6271377;22;20042;-71
2024/03/09 12:34:31;;;;;;;17.65;10.95;;;11.20;90.00;;;;;;6273995;22;20007;-70
2024/03/09 12:37:25;;;;;;;17.52;11.50;;;11.20;89.70;;;;;;6274024;22;20011;-74
2024/03/09 12:40:18;;;;;;;16.65;11.27;;;11.20;89.20;;;;;;6273251;22;20035;-71
2024/03/09 12:43:05;;;;;;;17.42;12.10;;;11.30;89.30;;;;;;6273917;22;20083;-70
2024/03/09 12:45:55;;;;;;;19.77;12.32;;;11.20;89.00;;;;;;6273496;22;20336;-71
2024/03/09 12:48:41;;;;;;;18.85;13.15;;;11.20;88.90;;;;;;6273512;22;20016;-71
2024/03/09 12:51:27;;;;;;;19.90;13.02;;;11.20;88.80;;;;;;6272039;22;20046;-72
2024/03/09 12:54:14;;;;;;;17.35;12.23;;;11.20;88.50;;;;;;6273595;22;20014;-71
2024/03/09 12:57:03;;;;;;;18.35;12.05;;;11.20;88.80;;;;;;6249549;22;20073;-71
2024/03/09 12:59:50;;;;;;;16.70;12.35;;;11.20;88.30;;;;;;6254100;22;20391;-70
2024/03/09 13:02:36;;;;;;;19.63;12.75;;;11.20;88.40;;;;;;6272929;22;20016;-70
2024/03/09 13:05:23;;;;;;;18.42;12.60;;;11.30;88.30;;;;;;6271868;22;20003;-70
2024/03/09 13:08:11;;;;;;;18.05;13.27;;;11.30;88.30;;;;;;6271297;22;20055;-70
2024/03/09 13:10:57;;;;;;;19.40;12.18;;;11.20;88.00;;;;;;6273063;22;20004;-70
2024/03/09 13:13:46;;;;;;;17.88;12.35;;;11.20;88.10;;;;;;6250102;22;20008;-70
2024/03/09 13:16:32;;;;;;;18.80;12.45;;;11.20;88.00;;;;;;6270308;22;20022;-76
2024/03/09 13:19:18;;;;;;;17.35;13.30;;;11.20;87.90;;;;;;6273071;22;20019;-73
2024/03/09 13:22:06;;;;;;;19.73;13.32;;;11.20;87.90;;;;;;6271885;22;20380;-73
2024/03/09 13:24:52;;;;;;;21.70;14.13;;;11.20;87.90;;;;;;6272566;22;20023;-73
2024/03/09 13:27:38;;;;;;;23.13;14.15;;;11.20;88.00;;;;;;6270594;22;20352;-73
2024/03/09 13:30:27;;;;;;;25.83;15.82;;;11.20;87.80;;;;;;6272100;22;20008;-73
2024/03/09 13:33:15;;;;;;;22.05;14.02;;;11.20;87.70;;;;;;6253718;22;20008;-74
2024/03/09 13:36:01;;;;;;;20.25;12.90;;;11.20;87.70;;;;;;6271306;22;20011;-73
2024/03/09 13:38:47;;;;;;;20.55;13.57;;;11.20;87.80;;;;;;6272762;22;20459;-74
2024/03/09 13:41:33;;;;;;;20.23;13.77;;;11.30;87.90;;;;;;6272603;22;20000;-73
2024/03/09 13:44:23;;;;;;;21.88;14.18;;;11.30;88.00;;;;;;6249834;22;20016;-74
2024/03/09 13:47:11;;;;;;;22.55;14.07;;;11.40;88.00;;;;;;6250701;22;20019;-74
2024/03/09 13:49:57;;;;;;;22.55;14.40;;;11.40;87.80;;;;;;6272072;22;20046;-74
2024/03/09 13:52:43;;;;;;;24.83;16.30;;;11.50;87.90;;;;;;6273558;22;20008;-73
2024/03/09 13:55:32;;;;;;;21.63;14.50;;;11.60;87.70;;;;;;6273415;22;20348;-74
2024/03/09 13:58:19;;;;;;;24.05;13.93;;;11.70;87.70;;;;;;6273217;22;20094;-73
2024/03/09 14:01:09;;;;;;;22.13;15.05;;;11.70;87.40;;;;;;6249757;22;20011;-73
2024/03/09 14:03:57;;;;;;;23.25;15.80;;;11.70;87.30;;;;;;6272681;22;20019;-73
2024/03/09 14:06:44;;;;;;;22.75;14.90;;;11.70;87.30;;;;;;6271239;22;20080;-73
2024/03/09 14:09:31;;;;;;;26.05;14.75;;;11.70;87.40;;;;;;6246171;22;20114;-73
2024/03/09 14:12:24;;;;;;;20.90;14.13;;;11.80;87.50;;;;;;6272219;22;20344;-72
2024/03/09 14:15:20;;;;;;;18.92;13.27;;;11.90;87.60;;;;;;6270504;22;20047;-73
2024/03/09 14:18:13;;;;;;;25.33;15.77;;;11.90;87.40;;;;;;6271354;22;20008;-70
2024/03/09 14:21:06;;;;;;;19.95;12.45;;;11.90;87.00;;;;;;6271186;22;20035;-71